Time;durP1;ratioP1;P1;durP2;ratioP2;P2;SDS_P1;SDS_P2;PMS_P1;PMS_P2;Temp;Humidity;BMP_temperature;BMP_pressure;BME280_temperature;BME280_humidity;BME280_pressure;Samples;Min_cycle;Max_cycle;Signal;HPM_P1;HPM_P2
2022/07/19 00:00:24;;;;;;;12.07;7.57;;;20.00;99.90;;;;;;6277095;28;20048;-69
2022/07/19 00:03:27;;;;;;;10.18;7.38;;;20.00;99.90;;;;;;6271403;28;20071;-68
2022/07/19 00:06:28;;;;;;;6.55;5.68;;;20.00;99.90;;;;;;6264723;28;20084;-68
2022/07/19 00:09:31;;;;;;;9.63;6.93;;;20.10;99.90;;;;;;6246378;28;20049;-68
2022/07/19 00:12:33;;;;;;;10.07;6.50;;;20.10;99.90;;;;;;6265401;28;20045;-69
2022/07/19 00:15:36;;;;;;;13.25;7.43;;;20.10;99.90;;;;;;6268758;28;20044;-69
2022/07/19 00:18:38;;;;;;;10.85;7.68;;;19.90;99.90;;;;;;6271452;28;20489;-70
2022/07/19 00:21:40;;;;;;;11.63;7.30;;;19.80;99.90;;;;;;6267460;28;20056;-69
2022/07/19 00:24:42;;;;;;;9.60;7.28;;;19.70;99.90;;;;;;6255000;28;20049;-69
2022/07/19 00:27:44;;;;;;;10.50;7.28;;;19.60;99.90;;;;;;6260642;28;20049;-68
2022/07/19 00:30:47;;;;;;;9.05;7.00;;;19.50;99.90;;;;;;6270445;28;20482;-69
2022/07/19 00:33:49;;;;;;;10.57;7.82;;;19.50;99.90;;;;;;6270986;28;20057;-69
2022/07/19 00:36:51;;;;;;;11.43;8.35;;;19.40;99.90;;;;;;6271121;28;20053;-69
2022/07/19 00:39:53;;;;;;;13.15;7.22;;;19.40;99.90;;;;;;6266185;28;20049;-68
2022/07/19 00:42:56;;;;;;;8.15;7.28;;;19.30;99.90;;;;;;6266691;28;20056;-68
2022/07/19 00:45:59;;;;;;;10.80;7.85;;;19.20;99.90;;;;;;6270702;28;20059;-69
2022/07/19 00:49:02;;;;;;;9.75;7.43;;;19.10;99.90;;;;;;6270389;28;20391;-69
2022/07/19 00:52:04;;;;;;;11.13;7.95;;;19.10;99.90;;;;;;6264804;28;20041;-69
2022/07/19 00:55:08;;;;;;;11.90;7.30;;;19.00;99.90;;;;;;6245725;28;20057;-69
2022/07/19 00:58:13;;;;;;;10.93;8.15;;;18.90;99.90;;;;;;6269158;28;20052;-69
2022/07/19 01:01:16;;;;;;;9.93;7.57;;;18.90;99.90;;;;;;6290925;28;20076;-69
2022/07/19 01:04:19;;;;;;;10.02;7.47;;;18.90;99.90;;;;;;6277693;28;20060;-69
2022/07/19 01:07:21;;;;;;;12.40;8.83;;;19.00;99.90;;;;;;6244985;28;20046;-69
2022/07/19 01:10:23;;;;;;;11.15;8.05;;;19.00;99.90;;;;;;6249221;28;20104;-68
2022/07/19 01:13:25;;;;;;;9.75;8.23;;;18.90;99.90;;;;;;6249697;28;20053;-69
2022/07/19 01:16:28;;;;;;;12.82;8.18;;;18.80;99.90;;;;;;6281578;28;20064;-68
2022/07/19 01:19:30;;;;;;;11.68;8.40;;;18.80;99.90;;;;;;6259802;28;20410;-69
2022/07/19 01:22:34;;;;;;;12.38;8.85;;;18.80;99.90;;;;;;6280537;28;20059;-70
2022/07/19 01:25:37;;;;;;;;;;;18.90;99.90;;;;;;6288348;28;20046;-70
2022/07/19 01:28:39;;;;;;;13.95;8.73;;;18.80;99.90;;;;;;6257124;28;19921;-70
2022/07/19 01:31:41;;;;;;;11.23;8.40;;;18.70;99.90;;;;;;6214810;28;1103811;-69
2022/07/19 01:34:43;;;;;;;11.05;8.88;;;18.60;99.90;;;;;;6250524;28;20045;-70
2022/07/19 01:37:46;;;;;;;12.18;8.57;;;18.50;99.90;;;;;;6261956;28;20068;-69
2022/07/19 01:40:48;;;;;;;12.48;9.25;;;18.50;99.90;;;;;;6260246;28;20049;-69
2022/07/19 01:43:50;;;;;;;14.82;8.70;;;18.40;99.90;;;;;;6272945;28;20046;-69
2022/07/19 01:46:52;;;;;;;10.68;8.57;;;18.40;99.90;;;;;;6271304;28;20552;-69
2022/07/19 01:49:54;;;;;;;13.70;9.00;;;18.30;99.90;;;;;;6256514;28;20049;-68
2022/07/19 01:52:57;;;;;;;13.13;8.90;;;18.30;99.90;;;;;;6300924;28;20064;-68
2022/07/19 01:55:59;;;;;;;11.90;8.65;;;18.30;99.90;;;;;;6287639;28;20049;-69
2022/07/19 01:59:01;;;;;;;12.50;8.95;;;18.30;99.90;;;;;;6259051;28;20057;-67
2022/07/19 02:02:03;;;;;;;12.70;9.38;;;18.30;99.90;;;;;;6273724;28;20139;-66
2022/07/19 02:05:06;;;;;;;12.80;9.50;;;18.40;99.90;;;;;;6251158;28;20053;-66
2022/07/19 02:08:10;;;;;;;10.50;8.65;;;18.40;99.90;;;;;;6256266;28;20052;-66
2022/07/19 02:14:31;;;;;;;12.70;9.02;;;18.60;99.90;;;;;;6274103;28;20099;-67
2022/07/19 02:17:33;;;;;;;11.48;9.05;;;18.60;99.90;;;;;;6262690;28;20057;-67
2022/07/19 02:20:34;;;;;;;11.60;8.75;;;18.60;99.90;;;;;;6286828;28;20051;-67
2022/07/19 02:23:38;;;;;;;13.77;8.85;;;18.60;99.90;;;;;;6258487;28;20056;-67
2022/07/19 02:26:40;;;;;;;12.43;8.77;;;18.50;99.90;;;;;;6262890;28;20486;-67
2022/07/19 02:29:42;;;;;;;12.30;9.00;;;18.60;99.90;;;;;;6259685;28;20044;-66
2022/07/19 02:32:44;;;;;;;12.55;8.52;;;18.50;99.90;;;;;;6252235;28;20056;-67
2022/07/19 02:35:46;;;;;;;11.23;9.45;;;18.50;99.90;;;;;;6272149;28;20402;-67
2022/07/19 02:38:49;;;;;;;13.07;9.70;;;18.40;99.90;;;;;;6270345;28;20044;-67
2022/07/19 02:41:51;;;;;;;11.13;9.18;;;18.40;99.90;;;;;;6277428;28;20049;-67
2022/07/19 02:44:53;;;;;;;14.82;9.25;;;18.40;99.90;;;;;;6292832;28;20045;-67
2022/07/19 02:47:55;;;;;;;12.68;9.07;;;18.30;99.90;;;;;;6296944;28;20067;-67
2022/07/19 02:50:57;;;;;;;13.32;9.57;;;18.30;99.90;;;;;;6281000;28;20056;-66
2022/07/19 02:54:00;;;;;;;13.77;9.70;;;18.20;99.90;;;;;;6259427;28;20049;-67
2022/07/19 02:57:02;;;;;;;12.25;9.63;;;18.20;99.90;;;;;;6292668;28;20485;-66
2022/07/19 03:00:07;;;;;;;12.52;9.55;;;18.20;99.90;;;;;;6304838;28;20521;-67
2022/07/19 03:06:28;;;;;;;13.15;9.50;;;18.20;99.90;;;;;;6249325;28;20050;-66
2022/07/19 03:09:32;;;;;;;14.13;9.57;;;18.30;99.90;;;;;;6250336;28;20057;-68
2022/07/19 03:12:34;;;;;;;12.80;8.98;;;18.30;99.90;;;;;;6272630;28;20075;-67
2022/07/19 03:15:36;;;;;;;10.63;8.90;;;18.40;99.90;;;;;;6272192;28;20555;-66
2022/07/19 03:18:38;;;;;;;12.73;9.80;;;18.40;99.90;;;;;;6270700;28;20056;-66
2022/07/19 03:21:40;;;;;;;13.70;10.18;;;18.40;99.90;;;;;;6272287;28;20045;-66
2022/07/19 03:24:43;;;;;;;17.23;9.52;;;18.40;99.90;;;;;;6273810;28;20055;-67
2022/07/19 03:27:45;;;;;;;13.57;9.05;;;18.20;99.90;;;;;;6253438;28;20600;-66
2022/07/19 03:30:47;;;;;;;12.13;9.30;;;18.20;99.90;;;;;;6262291;28;20053;-66
2022/07/19 03:33:49;;;;;;;10.50;8.77;;;18.20;99.90;;;;;;6249367;28;20057;-66
2022/07/19 03:36:50;;;;;;;14.52;9.90;;;18.20;99.90;;;;;;6266448;28;20053;-66
2022/07/19 03:39:54;;;;;;;12.75;9.45;;;18.20;99.90;;;;;;6269375;28;20076;-66
2022/07/19 03:42:56;;;;;;;12.48;9.45;;;18.20;99.90;;;;;;6273012;28;20053;-66
2022/07/19 03:45:57;;;;;;;13.27;9.95;;;18.30;99.90;;;;;;6270720;28;20053;-67
2022/07/19 03:48:59;;;;;;;12.27;9.75;;;18.20;99.90;;;;;;6252959;28;20056;-66
2022/07/19 03:52:01;;;;;;;11.43;8.95;;;18.10;99.90;;;;;;6261722;28;20049;-66
2022/07/19 03:55:05;;;;;;;12.75;9.25;;;18.20;99.90;;;;;;6271800;28;20049;-66
2022/07/19 03:58:07;;;;;;;11.57;8.55;;;18.10;99.90;;;;;;6270237;28;20477;-66
2022/07/19 04:01:09;;;;;;;12.40;9.70;;;18.10;99.90;;;;;;6259671;28;20052;-66
2022/07/19 04:04:11;;;;;;;13.55;9.30;;;18.10;99.90;;;;;;6280598;28;20517;-66
2022/07/19 04:07:13;;;;;;;11.50;9.05;;;18.10;99.90;;;;;;6262339;28;20056;-66
2022/07/19 04:10:16;;;;;;;12.80;9.43;;;18.00;99.90;;;;;;6271341;28;20049;-66
2022/07/19 04:13:18;;;;;;;17.00;10.32;;;18.00;99.90;;;;;;6256676;28;20048;-66
2022/07/19 04:16:20;;;;;;;13.07;9.40;;;17.90;99.90;;;;;;6247369;28;20052;-66
2022/07/19 04:19:22;;;;;;;13.05;9.65;;;17.90;99.90;;;;;;6247135;28;20056;-66
2022/07/19 04:22:24;;;;;;;15.52;9.88;;;17.80;99.90;;;;;;6269774;28;20610;-66
2022/07/19 04:25:28;;;;;;;12.23;10.47;;;17.90;99.90;;;;;;6262929;28;20056;-66
2022/07/19 04:28:30;;;;;;;12.75;9.77;;;17.80;99.90;;;;;;6253609;28;20049;-66
2022/07/19 04:31:31;;;;;;;12.98;10.15;;;17.80;99.90;;;;;;6269586;28;20041;-66
2022/07/19 04:34:33;;;;;;;12.88;9.90;;;17.80;99.90;;;;;;6269814;28;20056;-66
2022/07/19 04:37:35;;;;;;;12.52;10.15;;;17.80;99.90;;;;;;6269993;28;20064;-66
2022/07/19 04:40:39;;;;;;;11.43;8.95;;;17.80;99.90;;;;;;6247476;28;20046;-66
2022/07/19 04:43:41;;;;;;;15.13;10.30;;;17.80;99.90;;;;;;6257522;28;20061;-67
2022/07/19 04:46:43;;;;;;;15.18;11.43;;;17.90;99.90;;;;;;6252369;28;20060;-67
2022/07/19 04:49:45;;;;;;;14.75;10.65;;;17.90;99.90;;;;;;6262874;28;20517;-67
2022/07/19 04:52:47;;;;;;;15.02;10.20;;;18.00;99.90;;;;;;6254600;28;20513;-66
2022/07/19 04:55:50;;;;;;;12.73;10.25;;;18.10;99.90;;;;;;6253906;28;20063;-67
2022/07/19 04:58:52;;;;;;;11.40;9.75;;;18.10;99.90;;;;;;6262341;28;20044;-66
2022/07/19 05:01:54;;;;;;;13.75;10.55;;;18.10;99.90;;;;;;6262180;28;20041;-66
2022/07/19 05:04:56;;;;;;;12.70;10.02;;;18.10;99.90;;;;;;6253495;28;20041;-66
2022/07/19 05:07:57;;;;;;;13.10;9.75;;;18.20;99.90;;;;;;6253681;28;20054;-66
2022/07/19 05:11:01;;;;;;;13.85;9.82;;;18.20;99.90;;;;;;6268870;28;20146;-67
2022/07/19 05:14:03;;;;;;;12.05;10.25;;;18.30;99.90;;;;;;6265059;28;20052;-67
2022/07/19 05:17:05;;;;;;;12.60;9.98;;;18.30;99.90;;;;;;6272042;28;20053;-67
2022/07/19 05:20:08;;;;;;;12.95;10.27;;;18.40;99.90;;;;;;6273638;28;20049;-66
2022/07/19 05:23:09;;;;;;;15.80;10.93;;;18.40;99.90;;;;;;6255321;28;20055;-67
2022/07/19 05:26:13;;;;;;;16.83;10.90;;;18.40;99.90;;;;;;6291782;28;20057;-66
2022/07/19 05:29:15;;;;;;;13.70;10.18;;;18.40;99.90;;;;;;6270364;28;20060;-66
2022/07/19 05:32:17;;;;;;;16.35;10.65;;;18.50;99.90;;;;;;6274482;28;20064;-66
2022/07/19 05:35:19;;;;;;;13.65;9.60;;;18.70;99.90;;;;;;6263919;28;20058;-66
2022/07/19 05:38:21;;;;;;;12.88;10.15;;;18.80;99.90;;;;;;6274283;28;20478;-66
2022/07/19 05:41:24;;;;;;;11.65;10.02;;;18.90;99.90;;;;;;6275907;28;20084;-67
2022/07/19 05:44:26;;;;;;;;;;;18.90;99.90;;;;;;6243193;28;20044;-66
2022/07/19 05:47:28;;;;;;;15.55;9.98;;;19.00;99.90;;;;;;6272052;28;20014;-67
2022/07/19 05:50:30;;;;;;;14.25;10.05;;;19.00;99.90;;;;;;6256490;28;20048;-65
2022/07/19 05:53:32;;;;;;;16.63;10.27;;;19.10;99.90;;;;;;6270201;28;20056;-66
2022/07/19 05:56:35;;;;;;;11.95;10.13;;;19.20;99.90;;;;;;6267015;28;20490;-66
2022/07/19 05:59:37;;;;;;;15.48;10.20;;;19.40;99.90;;;;;;6306200;28;20486;-65
2022/07/19 06:02:39;;;;;;;15.60;9.63;;;19.50;99.90;;;;;;6273564;28;20414;-67
2022/07/19 06:05:41;;;;;;;11.43;8.82;;;19.60;99.90;;;;;;6254542;28;20037;-66
2022/07/19 06:08:43;;;;;;;14.10;10.32;;;19.70;99.90;;;;;;6254126;28;20412;-67
2022/07/19 06:11:47;;;;;;;10.35;8.20;;;19.80;99.90;;;;;;6275355;28;20049;-67
2022/07/19 06:14:49;;;;;;;15.20;9.90;;;20.00;99.90;;;;;;6254648;28;20049;-67
2022/07/19 06:17:50;;;;;;;14.90;10.13;;;20.20;99.90;;;;;;6272433;28;20053;-67
2022/07/19 06:20:52;;;;;;;16.02;9.30;;;20.30;99.90;;;;;;6262880;28;20037;-67
2022/07/19 06:23:54;;;;;;;15.13;10.10;;;20.40;99.90;;;;;;6262287;28;20045;-66
2022/07/19 06:26:57;;;;;;;15.00;9.80;;;20.50;99.90;;;;;;6274907;28;20418;-67
2022/07/19 06:30:00;;;;;;;14.38;10.98;;;20.60;99.90;;;;;;6273225;28;20421;-68
2022/07/19 06:33:02;;;;;;;12.95;10.05;;;20.60;99.90;;;;;;6273191;28;20413;-66
2022/07/19 06:36:05;;;;;;;12.00;9.80;;;20.90;99.90;;;;;;6273502;28;20057;-67
2022/07/19 06:39:07;;;;;;;12.20;10.37;;;21.00;99.90;;;;;;6283043;28;20494;-67
2022/07/19 06:42:10;;;;;;;13.13;9.77;;;21.10;99.90;;;;;;6250412;28;20056;-67
2022/07/19 06:45:12;;;;;;;10.73;9.23;;;21.20;99.90;;;;;;6273003;28;20068;-67
2022/07/19 06:48:14;;;;;;;15.15;10.05;;;21.30;99.90;;;;;;6260314;28;20057;-67
2022/07/19 06:51:16;;;;;;;13.02;9.25;;;21.40;99.90;;;;;;6269472;28;20048;-67
2022/07/19 06:54:18;;;;;;;12.60;9.43;;;21.50;99.90;;;;;;6266235;28;20060;-67
2022/07/19 06:57:21;;;;;;;12.57;9.07;;;21.60;99.90;;;;;;6249340;28;20049;-66
2022/07/19 07:00:23;;;;;;;12.73;8.63;;;21.60;99.90;;;;;;6273304;28;20056;-67
2022/07/19 07:03:25;;;;;;;12.10;8.70;;;21.70;99.90;;;;;;6262916;28;20049;-67
2022/07/19 07:06:27;;;;;;;11.75;8.15;;;21.80;99.90;;;;;;6270123;28;20078;-67
2022/07/19 07:09:29;;;;;;;10.95;7.97;;;21.90;99.90;;;;;;6281397;28;20045;-67
2022/07/19 07:12:32;;;;;;;12.32;8.35;;;22.10;99.90;;;;;;6264124;28;20049;-68
2022/07/19 07:15:34;;;;;;;7.97;6.25;;;22.20;99.90;;;;;;6273695;28;20048;-67
2022/07/19 07:18:36;;;;;;;10.95;7.28;;;22.60;99.90;;;;;;6272372;28;20053;-68
2022/07/19 07:21:38;;;;;;;10.20;7.25;;;23.20;99.90;;;;;;6272360;28;20045;-67
2022/07/19 07:24:40;;;;;;;9.43;6.43;;;23.90;99.90;;;;;;6272556;28;20061;-67
2022/07/19 07:27:43;;;;;;;11.10;6.30;;;24.40;99.90;;;;;;6253286;28;20053;-66
2022/07/19 07:30:45;;;;;;;10.48;6.15;;;24.80;99.90;;;;;;6263189;28;20141;-67
2022/07/19 07:33:47;;;;;;;8.10;5.47;;;25.20;99.90;;;;;;6273060;28;20052;-67
2022/07/19 07:36:49;;;;;;;12.30;6.10;;;25.50;99.90;;;;;;6272355;28;20045;-67
2022/07/19 07:39:51;;;;;;;9.40;5.20;;;25.80;99.90;;;;;;6271840;28;20056;-67
2022/07/19 07:42:54;;;;;;;11.43;5.25;;;26.00;99.90;;;;;;6271507;28;20048;-66
2022/07/19 07:45:56;;;;;;;7.60;4.53;;;26.20;99.90;;;;;;6261281;28;20498;-67
2022/07/19 07:48:58;;;;;;;7.38;4.90;;;26.50;99.90;;;;;;6266968;28;20055;-66
2022/07/19 07:52:00;;;;;;;7.97;4.38;;;26.70;99.90;;;;;;6273260;28;20041;-68
2022/07/19 07:55:03;;;;;;;6.05;4.50;;;26.90;99.90;;;;;;6272734;28;20409;-68
2022/07/19 07:58:07;;;;;;;6.80;4.88;;;27.10;99.90;;;;;;6256952;28;20052;-66
2022/07/19 08:01:09;;;;;;;7.88;4.85;;;27.20;99.90;;;;;;6266888;28;20064;-67
2022/07/19 08:04:11;;;;;;;5.45;4.30;;;27.20;99.90;;;;;;6258152;28;20045;-67
2022/07/19 08:07:13;;;;;;;7.93;4.50;;;27.20;99.90;;;;;;6247650;28;20161;-67
2022/07/19 08:10:15;;;;;;;7.88;4.25;;;27.10;99.90;;;;;;6251059;28;20517;-67
2022/07/19 08:13:18;;;;;;;5.90;4.10;;;27.00;99.90;;;;;;6257212;28;20049;-65
2022/07/19 08:16:20;;;;;;;7.55;4.05;;;27.10;99.90;;;;;;6268243;28;20513;-67
2022/07/19 08:19:22;;;;;;;6.53;3.67;;;27.10;99.80;;;;;;6270636;28;20049;-67
2022/07/19 08:22:24;;;;;;;5.72;4.20;;;27.20;99.20;;;;;;6261368;28;20044;-66
2022/07/19 08:25:26;;;;;;;5.30;3.55;;;27.20;99.10;;;;;;6224482;28;20044;-67
2022/07/19 08:28:29;;;;;;;5.57;3.50;;;27.30;99.10;;;;;;6288627;28;20067;-67
2022/07/19 08:31:31;;;;;;;;;;;27.30;98.40;;;;;;6261728;28;20056;-67
2022/07/19 08:34:33;;;;;;;5.80;3.75;;;27.50;98.00;;;;;;6253700;28;19924;-67
2022/07/19 08:37:35;;;;;;;5.90;4.05;;;27.60;97.80;;;;;;6254092;28;20406;-68
2022/07/19 08:40:42;;;;;;;10.52;3.80;;;27.60;97.90;;;;;;6254939;28;20474;-66
2022/07/19 08:43:45;;;;;;;9.52;4.00;;;27.70;97.50;;;;;;6253102;28;20490;-68
2022/07/19 08:46:48;;;;;;;7.07;3.83;;;27.60;97.80;;;;;;6252628;28;20048;-67
2022/07/19 08:49:50;;;;;;;9.20;4.05;;;27.60;97.90;;;;;;6259194;28;20049;-68
2022/07/19 08:59:14;;;;;;;5.75;3.25;;;27.20;98.00;;;;;;7024544;23;20055;-78
2022/07/19 09:02:16;;;;;;;;;;;27.20;97.80;;;;;;6139557;28;20052;-78
2022/07/19 09:05:18;;;;;;;4.55;3.28;;;27.30;98.60;;;;;;6142299;28;20291;-76
2022/07/19 09:08:20;;;;;;;5.68;3.20;;;27.30;97.50;;;;;;6127594;28;20675;-75
2022/07/19 09:11:33;;;;;;;4.78;3.58;;;27.30;97.40;;;;;;6146655;28;20062;-77
2022/07/19 09:14:38;;;;;;;6.68;3.40;;;27.30;97.80;;;;;;6131987;28;20155;-78
2022/07/19 09:20:09;;;;;;;5.45;3.00;;;27.20;97.80;;;;;;9219825;19;20699;-69
2022/07/19 09:23:15;;;;;;;4.45;3.15;;;27.00;97.80;;;;;;9224482;19;20018;-68
2022/07/19 09:26:19;;;;;;;4.75;2.90;;;26.90;97.80;;;;;;9221614;19;20014;-69
2022/07/19 09:29:23;;;;;;;4.60;2.97;;;26.90;97.90;;;;;;9221939;19;20086;-70
2022/07/19 09:32:28;;;;;;;4.53;3.05;;;26.90;97.80;;;;;;9222630;19;20030;-70
2022/07/19 09:35:41;;;;;;;5.97;3.28;;;26.80;98.00;;;;;;9225087;19;20018;-69
2022/07/19 09:38:44;;;;;;;5.70;2.85;;;26.60;97.90;;;;;;9221147;19;20014;-70
2022/07/19 09:41:57;;;;;;;4.00;3.20;;;26.60;97.20;;;;;;9220367;19;20022;-70
2022/07/19 09:45:03;;;;;;;5.15;3.50;;;26.70;97.90;;;;;;9219980;19;20051;-69
2022/07/19 09:48:07;;;;;;;4.70;2.80;;;26.70;97.70;;;;;;9221812;19;20348;-69
2022/07/19 09:51:14;;;;;;;3.83;2.97;;;26.60;97.80;;;;;;9219356;19;20022;-69
2022/07/19 09:54:20;;;;;;;5.57;2.92;;;26.70;97.80;;;;;;9224560;19;20018;-69
2022/07/19 09:57:26;;;;;;;3.42;2.90;;;26.60;97.60;;;;;;9222529;19;20480;-69
2022/07/19 10:00:30;;;;;;;3.67;2.80;;;26.50;97.90;;;;;;9221305;19;20414;-69
2022/07/19 10:03:35;;;;;;;4.90;3.10;;;26.50;97.80;;;;;;9223643;19;20051;-69
2022/07/19 10:06:43;;;;;;;4.28;3.17;;;26.50;97.80;;;;;;9221530;19;20010;-69
2022/07/19 10:09:48;;;;;;;4.40;2.90;;;26.60;97.70;;;;;;9219737;19;20018;-70
2022/07/19 10:12:53;;;;;;;3.30;2.55;;;26.60;97.70;;;;;;9222849;19;20025;-69
2022/07/19 10:16:01;;;;;;;5.15;3.28;;;26.50;97.60;;;;;;9218748;19;20035;-69
2022/07/19 10:19:08;;;;;;;5.72;2.90;;;26.50;97.60;;;;;;9216787;19;20367;-69
2022/07/19 10:22:17;;;;;;;4.13;2.95;;;26.60;97.60;;;;;;9223235;19;20015;-69
2022/07/19 10:25:22;;;;;;;5.68;3.03;;;26.70;97.90;;;;;;9222672;19;20025;-69
2022/07/19 10:28:35;;;;;;;3.10;2.47;;;26.70;97.60;;;;;;9220611;19;20018;-69
2022/07/19 10:31:40;;;;;;;3.13;2.75;;;26.80;97.50;;;;;;9186680;19;20019;-69
2022/07/19 10:34:46;;;;;;;4.00;2.58;;;26.80;97.50;;;;;;9185668;19;20025;-69
2022/07/19 10:37:53;;;;;;;3.83;2.75;;;26.80;97.30;;;;;;9182923;19;20030;-69
2022/07/19 10:40:59;;;;;;;6.57;2.95;;;26.80;97.50;;;;;;9187241;19;20029;-69
2022/07/19 10:44:11;;;;;;;3.47;2.80;;;26.90;97.40;;;;;;9187999;19;20010;-68
2022/07/19 10:47:15;;;;;;;4.13;2.78;;;26.90;97.30;;;;;;9183215;19;20038;-68
2022/07/19 10:50:21;;;;;;;3.67;2.60;;;26.90;97.20;;;;;;9185638;19;20459;-68
2022/07/19 10:54:02;;;;;;;3.22;2.70;;;26.90;97.30;;;;;;9164697;19;20024;-69
2022/07/19 10:57:09;;;;;;;3.60;2.67;;;26.90;97.30;;;;;;9179719;19;20022;-72
2022/07/19 11:00:19;;;;;;;4.38;2.20;;;27.00;96.90;;;;;;9181362;19;20034;-69
2022/07/19 11:03:32;;;;;;;19.38;3.05;;;27.00;97.10;;;;;;9184339;19;20015;-69
2022/07/19 11:06:36;;;;;;;17.70;4.40;;;27.10;97.50;;;;;;9171796;19;20018;-69
2022/07/19 11:09:45;;;;;;;17.67;4.28;;;27.30;98.40;;;;;;9180903;19;20014;-68
2022/07/19 11:12:52;;;;;;;12.95;3.95;;;27.40;98.90;;;;;;9182990;19;20011;-69
2022/07/19 11:16:00;;;;;;;10.02;3.72;;;27.40;98.90;;;;;;9184000;19;20015;-69
2022/07/19 11:19:09;;;;;;;8.52;2.72;;;27.40;99.10;;;;;;9180935;19;20480;-69
2022/07/19 11:22:14;;;;;;;6.75;3.08;;;27.40;98.80;;;;;;9186436;19;20014;-69
2022/07/19 11:25:25;;;;;;;5.95;3.10;;;27.30;98.90;;;;;;9183377;19;20010;-69
2022/07/19 11:28:34;;;;;;;6.10;2.60;;;27.20;99.00;;;;;;9183988;19;20030;-69
2022/07/19 11:31:48;;;;;;;5.00;2.72;;;27.20;99.20;;;;;;9183649;19;20042;-69
2022/07/19 11:35:02;;;;;;;5.53;2.42;;;27.30;98.40;;;;;;9183147;19;20014;-69
2022/07/19 11:38:06;;;;;;;6.15;3.00;;;27.50;97.20;;;;;;9181165;19;20010;-69
2022/07/19 11:41:14;;;;;;;7.68;2.60;;;27.60;98.10;;;;;;9180313;19;20018;-68
2022/07/19 11:44:21;;;;;;;5.07;2.45;;;27.50;98.10;;;;;;9182781;19;20010;-68
2022/07/19 11:47:25;;;;;;;5.10;2.40;;;27.50;97.90;;;;;;9177817;19;20361;-69
2022/07/19 11:50:30;;;;;;;4.57;2.33;;;27.60;98.00;;;;;;9182703;19;20014;-69
2022/07/19 11:53:35;;;;;;;4.50;2.40;;;27.40;98.00;;;;;;9181032;19;20018;-68
2022/07/19 11:56:39;;;;;;;3.05;2.35;;;27.40;98.00;;;;;;9182146;19;20042;-69
2022/07/19 11:59:46;;;;;;;2.75;2.05;;;27.50;98.10;;;;;;9174963;19;20014;-69
2022/07/19 12:02:56;;;;;;;3.22;2.20;;;27.40;98.10;;;;;;9046234;19;20015;-69
2022/07/19 12:06:01;;;;;;;3.00;2.20;;;27.50;97.80;;;;;;9178041;19;20026;-69
2022/07/19 12:11:59;;;;;;;3.78;2.20;;;27.50;98.10;;;;;;9218076;19;20699;-70
2022/07/19 12:15:09;;;;;;;3.55;2.08;;;27.40;98.00;;;;;;9222985;19;20014;-69
2022/07/19 12:18:16;;;;;;;3.72;2.20;;;27.30;95.40;;;;;;9223334;19;20728;-69
2022/07/19 12:21:27;;;;;;;3.33;2.25;;;27.40;97.90;;;;;;9222941;19;20524;-69
2022/07/19 12:24:31;;;;;;;2.40;1.92;;;27.60;97.80;;;;;;9222560;19;20060;-69
2022/07/19 12:27:40;;;;;;;2.95;1.95;;;27.50;97.80;;;;;;9221016;19;20018;-69
2022/07/19 12:30:44;;;;;;;2.92;2.20;;;27.40;97.80;;;;;;9219552;19;20014;-69
2022/07/19 12:33:48;;;;;;;4.28;2.38;;;27.40;97.90;;;;;;9223550;19;20022;-69
2022/07/19 12:36:53;;;;;;;2.80;2.08;;;27.30;97.90;;;;;;9211449;19;20015;-69
2022/07/19 12:40:08;;;;;;;4.22;2.05;;;27.30;97.80;;;;;;9221901;19;20010;-69
2022/07/19 12:43:15;;;;;;;3.70;1.80;;;27.40;97.90;;;;;;9221152;19;20387;-69
2022/07/19 12:46:19;;;;;;;3.53;2.00;;;27.40;97.60;;;;;;9222276;19;20017;-69
2022/07/19 12:49:26;;;;;;;3.20;2.13;;;27.30;97.90;;;;;;9222749;19;20041;-69
2022/07/19 12:52:30;;;;;;;2.22;1.67;;;27.40;97.80;;;;;;9224548;19;20010;-69
2022/07/19 12:55:35;;;;;;;3.95;2.20;;;27.50;97.60;;;;;;9223177;19;20014;-69
2022/07/19 13:01:58;;;;;;;3.80;2.17;;;27.50;97.60;;;;;;9222506;19;20018;-69
2022/07/19 13:05:02;;;;;;;3.35;2.00;;;27.50;97.70;;;;;;9221868;19;20021;-69
2022/07/19 13:08:07;;;;;;;3.38;2.20;;;27.50;97.80;;;;;;9221727;19;20418;-69
2022/07/19 13:11:11;;;;;;;4.15;2.20;;;27.50;97.80;;;;;;9218510;19;20437;-69
2022/07/19 13:14:17;;;;;;;3.38;2.10;;;27.60;97.70;;;;;;9218765;19;20034;-69
2022/07/19 13:17:22;;;;;;;3.95;2.10;;;27.60;97.60;;;;;;9220350;19;20019;-69
2022/07/19 13:20:26;;;;;;;3.55;2.20;;;27.60;97.60;;;;;;9220756;19;20019;-69
2022/07/19 13:23:30;;;;;;;3.35;2.10;;;27.60;97.60;;;;;;9183430;19;20022;-71
2022/07/19 13:26:35;;;;;;;3.67;2.03;;;27.60;97.40;;;;;;9182369;19;20050;-69
2022/07/19 13:29:41;;;;;;;2.65;2.10;;;27.60;97.60;;;;;;9176965;19;20484;-69
2022/07/19 13:32:47;;;;;;;3.45;2.03;;;27.60;97.60;;;;;;9182694;19;20046;-70
2022/07/19 13:35:51;;;;;;;2.47;2.00;;;27.60;97.60;;;;;;9180554;19;20022;-69
2022/07/19 13:38:55;;;;;;;2.85;2.20;;;27.70;97.60;;;;;;9184408;19;20015;-70
2022/07/19 13:42:00;;;;;;;3.85;2.13;;;27.60;97.10;;;;;;9178816;19;20015;-69
2022/07/19 13:45:07;;;;;;;2.78;1.80;;;27.70;97.40;;;;;;9182701;19;20030;-69
2022/07/19 13:48:11;;;;;;;3.80;1.70;;;27.70;97.20;;;;;;9184005;19;20021;-69
2022/07/19 13:51:16;;;;;;;2.72;1.73;;;27.60;96.70;;;;;;9173307;19;20014;-69
2022/07/19 13:54:20;;;;;;;2.83;1.85;;;27.60;97.00;;;;;;9187032;19;20015;-69
2022/07/19 13:57:24;;;;;;;4.45;1.90;;;27.60;97.20;;;;;;9037565;19;20022;-69
2022/07/19 14:01:17;;;;;;;4.00;1.50;;;27.60;96.00;;;;;;9219833;19;20736;-71
2022/07/19 14:04:23;;;;;;;2.10;1.40;;;28.90;92.80;;;;;;9222471;19;20397;-72
2022/07/19 14:07:27;;;;;;;2.88;1.58;;;31.00;90.90;;;;;;9215808;19;20754;-71
2022/07/19 14:10:31;;;;;;;5.70;1.50;;;32.90;90.40;;;;;;9224197;19;20431;-70
2022/07/19 14:13:35;;;;;;;6.20;1.80;;;34.50;86.40;;;;;;9220044;19;20077;-70
2022/07/19 14:16:42;;;;;;;2.67;1.65;;;35.80;84.50;;;;;;8984115;19;1005017;-72
2022/07/19 14:20:59;;;;;;;2.50;1.98;;;36.90;82.40;;;;;;9219662;19;20555;-75
2022/07/19 14:24:04;;;;;;;2.00;1.80;;;36.40;84.80;;;;;;9119573;19;20026;-75
2022/07/19 14:27:08;;;;;;;3.10;1.67;;;34.80;86.20;;;;;;9223525;19;20015;-75
2022/07/19 14:30:13;;;;;;;3.35;1.60;;;33.40;88.10;;;;;;9221048;19;20013;-75
2022/07/19 14:33:17;;;;;;;3.15;1.83;;;32.10;89.50;;;;;;9222822;19;20014;-75
2022/07/19 14:36:24;;;;;;;2.65;1.80;;;31.20;90.20;;;;;;9219989;19;20006;-75
2022/07/19 14:39:28;;;;;;;2.60;1.75;;;30.50;91.30;;;;;;9223488;19;20014;-75
2022/07/19 14:42:32;;;;;;;1.83;1.60;;;29.80;91.60;;;;;;9221854;19;20020;-75
2022/07/19 14:45:36;;;;;;;2.60;1.70;;;29.30;92.00;;;;;;9226087;19;20416;-75
2022/07/19 14:48:40;;;;;;;5.45;1.80;;;29.00;92.50;;;;;;9221491;19;20048;-74
2022/07/19 14:51:46;;;;;;;2.75;1.70;;;28.70;92.50;;;;;;9219228;19;20432;-75
2022/07/19 14:54:50;;;;;;;2.70;1.70;;;28.60;92.80;;;;;;9222982;19;20042;-75
2022/07/19 14:57:54;;;;;;;2.40;1.60;;;28.50;92.40;;;;;;9222889;19;20052;-74
2022/07/19 15:00:58;;;;;;;2.67;1.70;;;28.60;92.60;;;;;;9218572;19;20010;-75
2022/07/19 15:04:02;;;;;;;2.05;1.60;;;28.60;92.30;;;;;;8917114;19;3009400;-74
2022/07/19 15:07:08;;;;;;;5.00;1.75;;;28.50;92.70;;;;;;9218167;19;20022;-74
2022/07/19 15:10:13;;;;;;;2.47;1.50;;;28.30;92.50;;;;;;9221115;19;20074;-75
2022/07/19 15:13:17;;;;;;;3.15;1.60;;;28.10;93.00;;;;;;9220397;19;20018;-74
2022/07/19 15:16:21;;;;;;;3.70;1.73;;;28.00;93.30;;;;;;9225058;19;20039;-75
2022/07/19 15:19:25;;;;;;;2.38;1.60;;;27.90;93.10;;;;;;9216715;19;20366;-75
2022/07/19 15:22:32;;;;;;;2.28;1.40;;;27.90;93.60;;;;;;9219109;19;20052;-75
2022/07/19 15:25:36;;;;;;;3.33;1.73;;;27.80;93.80;;;;;;9221671;19;20077;-74
2022/07/19 15:28:41;;;;;;;2.92;1.67;;;27.70;93.80;;;;;;9220543;19;20074;-74
2022/07/19 15:31:45;;;;;;;3.30;1.58;;;27.60;94.00;;;;;;9189647;19;20070;-75
2022/07/19 15:34:49;;;;;;;2.40;1.75;;;27.60;94.30;;;;;;9185727;19;20015;-75
2022/07/19 15:37:56;;;;;;;3.55;1.60;;;27.50;94.40;;;;;;9186239;19;20010;-75
2022/07/19 15:41:00;;;;;;;3.97;1.70;;;27.60;94.50;;;;;;9183346;19;20018;-75
2022/07/19 15:44:05;;;;;;;3.58;1.70;;;27.60;94.50;;;;;;9179430;19;20085;-75
2022/07/19 15:47:09;;;;;;;3.17;1.67;;;27.60;94.40;;;;;;9179706;19;20018;-75
2022/07/19 15:50:14;;;;;;;2.38;1.80;;;27.60;94.30;;;;;;9183423;19;20017;-74
2022/07/19 15:53:21;;;;;;;2.38;1.80;;;27.70;94.60;;;;;;9183412;19;20022;-75
2022/07/19 15:56:25;;;;;;;2.70;1.55;;;27.60;94.40;;;;;;9185617;19;20015;-75
2022/07/19 15:59:29;;;;;;;12.13;2.00;;;27.60;94.10;;;;;;9179138;19;20085;-76
2022/07/19 16:02:33;;;;;;;7.43;2.10;;;27.70;94.90;;;;;;9187310;19;20345;-75
2022/07/19 16:05:37;;;;;;;3.28;1.73;;;27.90;94.80;;;;;;9177405;19;20479;-74
2022/07/19 16:08:43;;;;;;;5.05;1.80;;;27.90;95.00;;;;;;9184742;19;20018;-74
2022/07/19 16:11:47;;;;;;;2.45;1.92;;;28.00;95.00;;;;;;9187056;19;20018;-75
2022/07/19 16:14:54;;;;;;;5.18;2.03;;;27.90;94.80;;;;;;9179695;19;20502;-74